sensor_id;sensor_type;location;lat;lon;timestamp;temperature;humidity
14331;DHT22;7249;49.376;11.080;2024-01-15T00:00:17;-2.50;99.90
14331;DHT22;7249;49.376;11.080;2024-01-15T00:02:43;-2.50;99.90
14331;DHT22;7249;49.376;11.080;2024-01-15T00:05:09;-2.50;99.90
14331;DHT22;7249;49.376;11.080;2024-01-15T00:07:35;-2.50;99.90
14331;DHT22;7249;49.376;11.080;2024-01-15T00:10:01;-2.50;99.90
14331;DHT22;7249;49.376;11.080;2024-01-15T00:12:27;-2.50;99.90
14331;DHT22;7249;49.376;11.080;2024-01-15T00:14:53;-2.60;99.90
14331;DHT22;7249;49.376;11.080;2024-01-15T00:17:18;-2.60;99.90
14331;DHT22;7249;49.376;11.080;2024-01-15T00:19:44;-2.50;99.90
14331;DHT22;7249;49.376;11.080;2024-01-15T00:22:09;-2.50;99.90
14331;DHT22;7249;49.376;11.080;2024-01-15T00:24:35;-2.60;99.90
14331;DHT22;7249;49.376;11.080;2024-01-15T00:27:00;-2.60;99.90
14331;DHT22;7249;49.376;11.080;2024-01-15T00:29:26;-2.60;99.90
14331;DHT22;7249;49.376;11.080;2024-01-15T00:31:52;-2.60;99.90
14331;DHT22;7249;49.376;11.080;2024-01-15T00:34:17;-2.60;99.90
14331;DHT22;7249;49.376;11.080;2024-01-15T00:36:43;-2.60;99.90
14331;DHT22;7249;49.376;11.080;2024-01-15T00:39:09;-2.50;99.90
14331;DHT22;7249;49.376;11.080;2024-01-15T00:41:36;-2.60;99.90
14331;DHT22;7249;49.376;11.080;2024-01-15T00:44:02;-2.50;99.90
14331;DHT22;7249;49.376;11.080;2024-01-15T00:46:28;-2.60;99.90
14331;DHT22;7249;49.376;11.080;2024-01-15T00:48:54;-2.50;99.90
14331;DHT22;7249;49.376;11.080;2024-01-15T00:51:19;-2.50;99.90
14331;DHT22;7249;49.376;11.080;2024-01-15T00:53:45;-2.50;99.90
14331;DHT22;7249;49.376;11.080;2024-01-15T00:56:11;-2.60;99.90
14331;DHT22;7249;49.376;11.080;2024-01-15T00:58:36;-2.60;99.90
14331;DHT22;7249;49.376;11.080;2024-01-15T01:01:02;-2.60;99.90
14331;DHT22;7249;49.376;11.080;2024-01-15T01:03:28;-2.50;99.90
14331;DHT22;7249;49.376;11.080;2024-01-15T01:05:53;-2.50;99.90
14331;DHT22;7249;49.376;11.080;2024-01-15T01:08:19;-2.40;99.90
14331;DHT22;7249;49.376;11.080;2024-01-15T01:10:44;-2.40;99.90
14331;DHT22;7249;49.376;11.080;2024-01-15T01:13:10;-2.50;99.90
14331;DHT22;7249;49.376;11.080;2024-01-15T01:15:36;-2.40;99.90
14331;DHT22;7249;49.376;11.080;2024-01-15T01:18:02;-2.40;99.90
14331;DHT22;7249;49.376;11.080;2024-01-15T01:20:27;-2.30;99.90
14331;DHT22;7249;49.376;11.080;2024-01-15T01:22:53;-2.20;99.90
14331;DHT22;7249;49.376;11.080;2024-01-15T01:25:19;-2.20;99.90
14331;DHT22;7249;49.376;11.080;2024-01-15T01:27:44;-2.20;99.90
14331;DHT22;7249;49.376;11.080;2024-01-15T01:30:10;-2.20;99.90
14331;DHT22;7249;49.376;11.080;2024-01-15T01:32:35;-2.10;99.90
14331;DHT22;7249;49.376;11.080;2024-01-15T01:35:01;-2.10;99.90
14331;DHT22;7249;49.376;11.080;2024-01-15T01:37:27;-2.10;99.90
14331;DHT22;7249;49.376;11.080;2024-01-15T01:39:52;-2.10;99.90
14331;DHT22;7249;49.376;11.080;2024-01-15T01:42:18;-2.10;99.90
14331;DHT22;7249;49.376;11.080;2024-01-15T01:44:44;-2.00;99.90
14331;DHT22;7249;49.376;11.080;2024-01-15T01:47:09;-2.00;99.90
14331;DHT22;7249;49.376;11.080;2024-01-15T01:49:37;-2.00;99.90
14331;DHT22;7249;49.376;11.080;2024-01-15T01:52:02;-2.00;99.90
14331;DHT22;7249;49.376;11.080;2024-01-15T01:54:31;-1.90;99.90
14331;DHT22;7249;49.376;11.080;2024-01-15T01:56:58;-1.90;99.90
14331;DHT22;7249;49.376;11.080;2024-01-15T01:59:26;-1.90;99.90
14331;DHT22;7249;49.376;11.080;2024-01-15T02:01:54;-1.90;99.90
14331;DHT22;7249;49.376;11.080;2024-01-15T02:04:20;-1.90;99.90
14331;DHT22;7249;49.376;11.080;2024-01-15T02:06:47;-1.90;99.90
14331;DHT22;7249;49.376;11.080;2024-01-15T02:09:13;-1.80;99.90
14331;DHT22;7249;49.376;11.080;2024-01-15T02:11:41;-1.90;99.90
14331;DHT22;7249;49.376;11.080;2024-01-15T02:14:07;-1.80;99.90
14331;DHT22;7249;49.376;11.080;2024-01-15T02:16:34;-1.80;99.90
14331;DHT22;7249;49.376;11.080;2024-01-15T02:18:59;-1.80;99.90
14331;DHT22;7249;49.376;11.080;2024-01-15T02:21:25;-1.80;99.90
14331;DHT22;7249;49.376;11.080;2024-01-15T02:23:54;-1.70;99.90
14331;DHT22;7249;49.376;11.080;2024-01-15T02:26:20;-1.70;99.90
14331;DHT22;7249;49.376;11.080;2024-01-15T02:28:46;-1.70;99.90
14331;DHT22;7249;49.376;11.080;2024-01-15T02:31:11;-1.70;99.90
14331;DHT22;7249;49.376;11.080;2024-01-15T02:33:37;-1.70;99.90
14331;DHT22;7249;49.376;11.080;2024-01-15T02:36:03;-1.70;99.90
14331;DHT22;7249;49.376;11.080;2024-01-15T02:38:28;-1.70;99.90
14331;DHT22;7249;49.376;11.080;2024-01-15T02:40:54;-1.70;99.90
14331;DHT22;7249;49.376;11.080;2024-01-15T02:43:20;-1.70;99.90
14331;DHT22;7249;49.376;11.080;2024-01-15T02:45:45;-1.70;99.90
14331;DHT22;7249;49.376;11.080;2024-01-15T02:48:12;-1.70;99.90
14331;DHT22;7249;49.376;11.080;2024-01-15T02:50:37;-1.60;99.90
14331;DHT22;7249;49.376;11.080;2024-01-15T02:53:03;-1.60;99.90
14331;DHT22;7249;49.376;11.080;2024-01-15T02:55:29;-1.60;99.90
14331;DHT22;7249;49.376;11.080;2024-01-15T02:57:55;-1.60;99.90
14331;DHT22;7249;49.376;11.080;2024-01-15T03:00:20;-1.60;99.90
14331;DHT22;7249;49.376;11.080;2024-01-15T03:02:46;-1.60;99.90
14331;DHT22;7249;49.376;11.080;2024-01-15T03:05:12;-1.60;99.90
14331;DHT22;7249;49.376;11.080;2024-01-15T03:07:37;-1.60;99.90
14331;DHT22;7249;49.376;11.080;2024-01-15T03:10:04;-1.60;99.90
14331;DHT22;7249;49.376;11.080;2024-01-15T03:12:30;-1.60;99.90
14331;DHT22;7249;49.376;11.080;2024-01-15T03:14:55;-1.60;99.90
14331;DHT22;7249;49.376;11.080;2024-01-15T03:17:21;-1.60;99.90
14331;DHT22;7249;49.376;11.080;2024-01-15T03:19:46;-1.60;99.90
14331;DHT22;7249;49.376;11.080;2024-01-15T03:22:12;-1.60;99.90
14331;DHT22;7249;49.376;11.080;2024-01-15T03:24:38;-1.60;99.90
14331;DHT22;7249;49.376;11.080;2024-01-15T03:27:03;-1.60;99.90
14331;DHT22;7249;49.376;11.080;2024-01-15T03:29:29;-1.60;99.90
14331;DHT22;7249;49.376;11.080;2024-01-15T03:31:55;-1.60;99.90
14331;DHT22;7249;49.376;11.080;2024-01-15T03:34:20;-1.60;99.90
14331;DHT22;7249;49.376;11.080;2024-01-15T03:36:49;-1.60;99.90
14331;DHT22;7249;49.376;11.080;2024-01-15T03:39:14;-1.60;99.90
14331;DHT22;7249;49.376;11.080;2024-01-15T03:41:40;-1.60;99.90
14331;DHT22;7249;49.376;11.080;2024-01-15T03:44:06;-1.50;99.90
14331;DHT22;7249;49.376;11.080;2024-01-15T03:46:31;-1.50;99.90
14331;DHT22;7249;49.376;11.080;2024-01-15T03:48:57;-1.60;99.90
14331;DHT22;7249;49.376;11.080;2024-01-15T03:51:23;-1.60;99.90
14331;DHT22;7249;49.376;11.080;2024-01-15T03:53:48;-1.50;99.90
14331;DHT22;7249;49.376;11.080;2024-01-15T03:56:14;-1.50;99.90
14331;DHT22;7249;49.376;11.080;2024-01-15T03:58:40;-1.50;99.90
14331;DHT22;7249;49.376;11.080;2024-01-15T04:01:11;-1.50;99.90
14331;DHT22;7249;49.376;11.080;2024-01-15T04:03:37;-1.50;99.90
14331;DHT22;7249;49.376;11.080;2024-01-15T04:06:03;-1.50;99.90
14331;DHT22;7249;49.376;11.080;2024-01-15T04:08:29;-1.40;99.90
14331;DHT22;7249;49.376;11.080;2024-01-15T04:10:55;-1.40;99.90
14331;DHT22;7249;49.376;11.080;2024-01-15T04:13:21;-1.40;99.90
14331;DHT22;7249;49.376;11.080;2024-01-15T04:15:47;-1.40;99.90
14331;DHT22;7249;49.376;11.080;2024-01-15T04:18:12;-1.40;99.90
14331;DHT22;7249;49.376;11.080;2024-01-15T04:20:38;-1.40;99.90
14331;DHT22;7249;49.376;11.080;2024-01-15T04:23:04;-1.40;99.90
14331;DHT22;7249;49.376;11.080;2024-01-15T04:25:30;-1.30;99.90
14331;DHT22;7249;49.376;11.080;2024-01-15T04:27:55;-1.30;99.90
14331;DHT22;7249;49.376;11.080;2024-01-15T04:30:21;-1.30;99.90
14331;DHT22;7249;49.376;11.080;2024-01-15T04:32:47;-1.30;99.90
14331;DHT22;7249;49.376;11.080;2024-01-15T04:35:12;-1.30;99.90
14331;DHT22;7249;49.376;11.080;2024-01-15T04:37:39;-1.40;99.90
14331;DHT22;7249;49.376;11.080;2024-01-15T04:40:05;-1.30;99.90
14331;DHT22;7249;49.376;11.080;2024-01-15T04:42:31;-1.30;99.90
14331;DHT22;7249;49.376;11.080;2024-01-15T04:44:56;-1.30;99.90
14331;DHT22;7249;49.376;11.080;2024-01-15T04:47:22;-1.30;99.90
14331;DHT22;7249;49.376;11.080;2024-01-15T04:49:47;-1.20;99.90
14331;DHT22;7249;49.376;11.080;2024-01-15T04:52:14;-1.30;99.90
14331;DHT22;7249;49.376;11.080;2024-01-15T04:54:40;-1.20;99.90
14331;DHT22;7249;49.376;11.080;2024-01-15T04:57:05;-1.20;99.90
14331;DHT22;7249;49.376;11.080;2024-01-15T04:59:31;-1.20;99.90
14331;DHT22;7249;49.376;11.080;2024-01-15T05:01:57;-1.10;99.90
14331;DHT22;7249;49.376;11.080;2024-01-15T05:04:22;-1.10;99.90
14331;DHT22;7249;49.376;11.080;2024-01-15T05:06:50;-1.10;99.90
14331;DHT22;7249;49.376;11.080;2024-01-15T05:09:15;-1.10;99.90
14331;DHT22;7249;49.376;11.080;2024-01-15T05:11:41;-1.10;99.90
14331;DHT22;7249;49.376;11.080;2024-01-15T05:14:06;-1.10;99.90
14331;DHT22;7249;49.376;11.080;2024-01-15T05:16:32;-1.10;99.90
14331;DHT22;7249;49.376;11.080;2024-01-15T05:18:58;-1.10;99.90
14331;DHT22;7249;49.376;11.080;2024-01-15T05:21:23;-1.10;99.90
14331;DHT22;7249;49.376;11.080;2024-01-15T05:23:49;-1.00;99.90
14331;DHT22;7249;49.376;11.080;2024-01-15T05:26:14;-1.00;99.90
14331;DHT22;7249;49.376;11.080;2024-01-15T05:28:43;-1.00;99.90
14331;DHT22;7249;49.376;11.080;2024-01-15T05:31:09;-1.10;99.90
14331;DHT22;7249;49.376;11.080;2024-01-15T05:33:36;-1.10;99.90
14331;DHT22;7249;49.376;11.080;2024-01-15T05:36:02;-1.10;99.90
14331;DHT22;7249;49.376;11.080;2024-01-15T05:38:28;-1.00;99.90
14331;DHT22;7249;49.376;11.080;2024-01-15T05:40:53;-1.10;99.90
14331;DHT22;7249;49.376;11.080;2024-01-15T05:43:19;-1.00;99.90
14331;DHT22;7249;49.376;11.080;2024-01-15T05:45:45;-1.00;99.90
14331;DHT22;7249;49.376;11.080;2024-01-15T05:48:11;-1.00;99.90
14331;DHT22;7249;49.376;11.080;2024-01-15T05:50:38;-1.00;99.90
14331;DHT22;7249;49.376;11.080;2024-01-15T05:53:03;-0.90;99.90
14331;DHT22;7249;49.376;11.080;2024-01-15T05:55:29;-0.90;99.90
14331;DHT22;7249;49.376;11.080;2024-01-15T05:57:55;-0.90;99.90
14331;DHT22;7249;49.376;11.080;2024-01-15T06:00:20;-0.90;99.90
14331;DHT22;7249;49.376;11.080;2024-01-15T06:02:46;-0.90;99.90
14331;DHT22;7249;49.376;11.080;2024-01-15T06:05:11;-0.90;99.90
14331;DHT22;7249;49.376;11.080;2024-01-15T06:07:37;-0.80;99.90
14331;DHT22;7249;49.376;11.080;2024-01-15T06:10:03;-0.80;99.90
14331;DHT22;7249;49.376;11.080;2024-01-15T06:12:30;-0.80;99.90
14331;DHT22;7249;49.376;11.080;2024-01-15T06:14:56;-0.80;99.90
14331;DHT22;7249;49.376;11.080;2024-01-15T06:17:22;-0.80;99.90
14331;DHT22;7249;49.376;11.080;2024-01-15T06:19:47;-0.80;99.90
14331;DHT22;7249;49.376;11.080;2024-01-15T06:22:13;-0.80;99.90
14331;DHT22;7249;49.376;11.080;2024-01-15T06:24:38;-0.80;99.90
14331;DHT22;7249;49.376;11.080;2024-01-15T06:27:04;-0.80;99.90
14331;DHT22;7249;49.376;11.080;2024-01-15T06:29:30;-0.80;99.90
14331;DHT22;7249;49.376;11.080;2024-01-15T06:31:55;-0.70;99.90
14331;DHT22;7249;49.376;11.080;2024-01-15T06:34:21;-0.70;99.90
14331;DHT22;7249;49.376;11.080;2024-01-15T06:36:46;-0.70;99.90
14331;DHT22;7249;49.376;11.080;2024-01-15T06:39:12;-0.70;99.90
14331;DHT22;7249;49.376;11.080;2024-01-15T06:41:38;-0.70;99.90
14331;DHT22;7249;49.376;11.080;2024-01-15T06:44:10;-0.60;99.90
14331;DHT22;7249;49.376;11.080;2024-01-15T06:46:36;-0.60;99.90
14331;DHT22;7249;49.376;11.080;2024-01-15T06:49:02;-0.60;99.90
14331;DHT22;7249;49.376;11.080;2024-01-15T06:51:28;-0.60;99.90
14331;DHT22;7249;49.376;11.080;2024-01-15T06:53:54;-0.60;99.90
14331;DHT22;7249;49.376;11.080;2024-01-15T06:56:19;-0.60;99.90
14331;DHT22;7249;49.376;11.080;2024-01-15T06:58:45;-0.60;99.90
14331;DHT22;7249;49.376;11.080;2024-01-15T07:01:10;-0.60;99.90
14331;DHT22;7249;49.376;11.080;2024-01-15T07:03:37;-0.60;99.90
14331;DHT22;7249;49.376;11.080;2024-01-15T07:06:02;-0.60;99.90
14331;DHT22;7249;49.376;11.080;2024-01-15T07:08:28;-0.60;99.90
14331;DHT22;7249;49.376;11.080;2024-01-15T07:10:54;-0.60;99.90
14331;DHT22;7249;49.376;11.080;2024-01-15T07:13:19;-0.70;99.90
14331;DHT22;7249;49.376;11.080;2024-01-15T07:15:45;-0.70;99.90
14331;DHT22;7249;49.376;11.080;2024-01-15T07:18:10;-0.70;99.90
14331;DHT22;7249;49.376;11.080;2024-01-15T07:20:36;-0.70;99.90
14331;DHT22;7249;49.376;11.080;2024-01-15T07:23:02;-0.70;99.90
14331;DHT22;7249;49.376;11.080;2024-01-15T07:25:28;-0.60;99.90
14331;DHT22;7249;49.376;11.080;2024-01-15T07:27:53;-0.60;99.90
14331;DHT22;7249;49.376;11.080;2024-01-15T07:30:19;-0.60;99.90
14331;DHT22;7249;49.376;11.080;2024-01-15T07:32:47;-0.60;99.90
14331;DHT22;7249;49.376;11.080;2024-01-15T07:35:14;-0.60;99.90
14331;DHT22;7249;49.376;11.080;2024-01-15T07:37:40;-0.60;99.90
14331;DHT22;7249;49.376;11.080;2024-01-15T07:40:06;-0.60;99.90
14331;DHT22;7249;49.376;11.080;2024-01-15T07:42:34;-0.70;99.90
14331;DHT22;7249;49.376;11.080;2024-01-15T07:45:00;-0.70;99.90
14331;DHT22;7249;49.376;11.080;2024-01-15T07:47:26;-0.60;99.90
14331;DHT22;7249;49.376;11.080;2024-01-15T07:49:52;-0.60;99.90
14331;DHT22;7249;49.376;11.080;2024-01-15T07:52:18;-0.60;99.90
14331;DHT22;7249;49.376;11.080;2024-01-15T07:54:43;-0.50;99.90
14331;DHT22;7249;49.376;11.080;2024-01-15T07:57:10;-0.50;99.90
14331;DHT22;7249;49.376;11.080;2024-01-15T07:59:35;-0.50;99.90
14331;DHT22;7249;49.376;11.080;2024-01-15T08:02:01;-0.50;99.90
14331;DHT22;7249;49.376;11.080;2024-01-15T08:04:27;-0.40;99.90
14331;DHT22;7249;49.376;11.080;2024-01-15T08:06:52;-0.40;99.90
14331;DHT22;7249;49.376;11.080;2024-01-15T08:09:18;-0.40;99.90
14331;DHT22;7249;49.376;11.080;2024-01-15T08:11:44;-0.40;99.90
14331;DHT22;7249;49.376;11.080;2024-01-15T08:14:11;-0.30;99.90
14331;DHT22;7249;49.376;11.080;2024-01-15T08:16:37;-0.30;99.90
14331;DHT22;7249;49.376;11.080;2024-01-15T08:19:03;-0.30;99.90
14331;DHT22;7249;49.376;11.080;2024-01-15T08:21:29;-0.30;99.90
14331;DHT22;7249;49.376;11.080;2024-01-15T08:23:56;-0.20;99.90
14331;DHT22;7249;49.376;11.080;2024-01-15T08:26:22;-0.20;99.90
14331;DHT22;7249;49.376;11.080;2024-01-15T08:28:48;-0.20;99.90
14331;DHT22;7249;49.376;11.080;2024-01-15T08:31:13;-0.10;99.90
14331;DHT22;7249;49.376;11.080;2024-01-15T08:33:39;-0.10;99.90
14331;DHT22;7249;49.376;11.080;2024-01-15T08:36:05;-0.10;99.90
14331;DHT22;7249;49.376;11.080;2024-01-15T08:38:31;-0.10;99.90
14331;DHT22;7249;49.376;11.080;2024-01-15T08:40:57;-0.10;99.90
14331;DHT22;7249;49.376;11.080;2024-01-15T08:43:24;-0.10;99.90
14331;DHT22;7249;49.376;11.080;2024-01-15T08:45:50;0.00;99.90
14331;DHT22;7249;49.376;11.080;2024-01-15T08:48:16;0.00;99.90
14331;DHT22;7249;49.376;11.080;2024-01-15T08:50:42;0.00;99.90
14331;DHT22;7249;49.376;11.080;2024-01-15T08:53:11;0.00;99.90
14331;DHT22;7249;49.376;11.080;2024-01-15T08:55:37;0.10;99.90
14331;DHT22;7249;49.376;11.080;2024-01-15T08:58:02;0.10;99.90
14331;DHT22;7249;49.376;11.080;2024-01-15T09:00:28;0.10;99.90
14331;DHT22;7249;49.376;11.080;2024-01-15T09:02:55;0.10;99.90
14331;DHT22;7249;49.376;11.080;2024-01-15T09:05:21;0.10;99.90
14331;DHT22;7249;49.376;11.080;2024-01-15T09:07:47;0.10;99.90
14331;DHT22;7249;49.376;11.080;2024-01-15T09:10:13;0.20;99.90
14331;DHT22;7249;49.376;11.080;2024-01-15T09:12:39;0.10;99.90
14331;DHT22;7249;49.376;11.080;2024-01-15T09:15:05;0.20;99.90
14331;DHT22;7249;49.376;11.080;2024-01-15T09:17:34;0.20;99.90
14331;DHT22;7249;49.376;11.080;2024-01-15T09:19:59;0.30;99.90
14331;DHT22;7249;49.376;11.080;2024-01-15T09:22:25;0.30;99.90
14331;DHT22;7249;49.376;11.080;2024-01-15T09:24:51;0.30;99.90
14331;DHT22;7249;49.376;11.080;2024-01-15T09:27:16;0.30;99.90
14331;DHT22;7249;49.376;11.080;2024-01-15T09:29:42;0.30;99.90
14331;DHT22;7249;49.376;11.080;2024-01-15T09:32:11;0.40;99.90
14331;DHT22;7249;49.376;11.080;2024-01-15T09:34:36;0.40;99.90
14331;DHT22;7249;49.376;11.080;2024-01-15T09:37:02;0.30;99.90
14331;DHT22;7249;49.376;11.080;2024-01-15T09:39:31;0.40;99.90
14331;DHT22;7249;49.376;11.080;2024-01-15T09:41:57;0.40;99.90
14331;DHT22;7249;49.376;11.080;2024-01-15T09:44:23;0.40;99.90
14331;DHT22;7249;49.376;11.080;2024-01-15T09:46:49;0.50;99.90
14331;DHT22;7249;49.376;11.080;2024-01-15T09:49:18;0.60;99.90
14331;DHT22;7249;49.376;11.080;2024-01-15T09:51:44;0.70;99.90
14331;DHT22;7249;49.376;11.080;2024-01-15T09:54:10;0.80;99.90
14331;DHT22;7249;49.376;11.080;2024-01-15T09:56:38;0.90;99.90
14331;DHT22;7249;49.376;11.080;2024-01-15T09:59:04;0.90;99.90
14331;DHT22;7249;49.376;11.080;2024-01-15T10:01:31;1.00;99.90
14331;DHT22;7249;49.376;11.080;2024-01-15T10:03:58;1.00;99.90
14331;DHT22;7249;49.376;11.080;2024-01-15T10:06:26;1.10;99.90
14331;DHT22;7249;49.376;11.080;2024-01-15T10:08:56;1.10;99.90
14331;DHT22;7249;49.376;11.080;2024-01-15T10:11:23;1.10;99.90
14331;DHT22;7249;49.376;11.080;2024-01-15T10:13:49;1.10;99.90
14331;DHT22;7249;49.376;11.080;2024-01-15T10:16:21;1.10;99.90
14331;DHT22;7249;49.376;11.080;2024-01-15T10:18:48;1.10;99.90
14331;DHT22;7249;49.376;11.080;2024-01-15T10:21:13;1.10;99.90
14331;DHT22;7249;49.376;11.080;2024-01-15T10:23:39;1.10;99.90
14331;DHT22;7249;49.376;11.080;2024-01-15T10:26:05;1.10;99.90
14331;DHT22;7249;49.376;11.080;2024-01-15T10:28:31;1.10;99.90
14331;DHT22;7249;49.376;11.080;2024-01-15T10:30:58;1.00;99.90
14331;DHT22;7249;49.376;11.080;2024-01-15T10:33:27;1.00;99.90
14331;DHT22;7249;49.376;11.080;2024-01-15T10:35:57;0.90;99.90
14331;DHT22;7249;49.376;11.080;2024-01-15T10:38:24;0.90;99.90
14331;DHT22;7249;49.376;11.080;2024-01-15T10:40:55;0.90;99.90
14331;DHT22;7249;49.376;11.080;2024-01-15T10:43:21;0.90;99.90
14331;DHT22;7249;49.376;11.080;2024-01-15T10:45:48;0.90;99.90
14331;DHT22;7249;49.376;11.080;2024-01-15T10:48:15;0.90;99.90
14331;DHT22;7249;49.376;11.080;2024-01-15T10:50:41;0.90;99.90
14331;DHT22;7249;49.376;11.080;2024-01-15T10:53:08;0.90;99.90
14331;DHT22;7249;49.376;11.080;2024-01-15T10:55:35;0.90;99.90
14331;DHT22;7249;49.376;11.080;2024-01-15T10:58:03;0.90;99.90
14331;DHT22;7249;49.376;11.080;2024-01-15T11:00:29;0.80;99.90
14331;DHT22;7249;49.376;11.080;2024-01-15T11:02:55;0.80;99.90
14331;DHT22;7249;49.376;11.080;2024-01-15T11:05:22;0.80;99.90
14331;DHT22;7249;49.376;11.080;2024-01-15T11:07:54;0.70;99.90
14331;DHT22;7249;49.376;11.080;2024-01-15T11:10:39;0.70;99.90
14331;DHT22;7249;49.376;11.080;2024-01-15T11:13:09;0.80;99.90
14331;DHT22;7249;49.376;11.080;2024-01-15T11:15:57;0.80;99.90
14331;DHT22;7249;49.376;11.080;2024-01-15T11:18:27;0.80;99.90
14331;DHT22;7249;49.376;11.080;2024-01-15T11:26:43;0.80;99.90
14331;DHT22;7249;49.376;11.080;2024-01-15T11:29:29;0.80;99.90
14331;DHT22;7249;49.376;11.080;2024-01-15T11:34:20;0.70;99.90
14331;DHT22;7249;49.376;11.080;2024-01-15T11:39:42;0.70;99.90
14331;DHT22;7249;49.376;11.080;2024-01-15T11:42:10;0.70;99.90
14331;DHT22;7249;49.376;11.080;2024-01-15T11:44:37;0.80;99.90
14331;DHT22;7249;49.376;11.080;2024-01-15T11:47:11;0.80;99.90
14331;DHT22;7249;49.376;11.080;2024-01-15T11:50:01;0.80;99.90
14331;DHT22;7249;49.376;11.080;2024-01-15T11:52:33;0.90;99.90
14331;DHT22;7249;49.376;11.080;2024-01-15T11:57:54;1.00;99.90
14331;DHT22;7249;49.376;11.080;2024-01-15T12:00:23;1.00;99.90
14331;DHT22;7249;49.376;11.080;2024-01-15T12:02:49;1.00;99.90
14331;DHT22;7249;49.376;11.080;2024-01-15T12:05:17;1.00;99.90
14331;DHT22;7249;49.376;11.080;2024-01-15T12:07:45;1.00;99.90
14331;DHT22;7249;49.376;11.080;2024-01-15T12:10:17;1.00;99.90
14331;DHT22;7249;49.376;11.080;2024-01-15T12:15:18;0.90;99.90
14331;DHT22;7249;49.376;11.080;2024-01-15T12:17:44;0.90;99.90
14331;DHT22;7249;49.376;11.080;2024-01-15T12:20:11;0.90;99.90
14331;DHT22;7249;49.376;11.080;2024-01-15T12:22:38;0.90;99.90
14331;DHT22;7249;49.376;11.080;2024-01-15T12:25:03;0.90;99.90
14331;DHT22;7249;49.376;11.080;2024-01-15T12:27:30;0.90;99.90
14331;DHT22;7249;49.376;11.080;2024-01-15T12:29:55;0.90;99.90
14331;DHT22;7249;49.376;11.080;2024-01-15T12:32:21;0.80;99.90
14331;DHT22;7249;49.376;11.080;2024-01-15T12:34:49;0.80;99.90
14331;DHT22;7249;49.376;11.080;2024-01-15T12:37:17;0.80;99.90
14331;DHT22;7249;49.376;11.080;2024-01-15T12:39:43;0.80;99.90
14331;DHT22;7249;49.376;11.080;2024-01-15T12:42:09;0.80;99.90
14331;DHT22;7249;49.376;11.080;2024-01-15T12:44:35;0.90;99.90
14331;DHT22;7249;49.376;11.080;2024-01-15T12:47:04;0.90;99.90
14331;DHT22;7249;49.376;11.080;2024-01-15T12:49:30;0.90;99.90
14331;DHT22;7249;49.376;11.080;2024-01-15T12:51:59;0.90;99.90
14331;DHT22;7249;49.376;11.080;2024-01-15T12:54:25;1.00;99.90
14331;DHT22;7249;49.376;11.080;2024-01-15T12:56:51;0.90;99.90
14331;DHT22;7249;49.376;11.080;2024-01-15T12:59:18;0.90;99.90
14331;DHT22;7249;49.376;11.080;2024-01-15T13:01:44;1.00;99.90
14331;DHT22;7249;49.376;11.080;2024-01-15T13:04:10;1.00;99.90
14331;DHT22;7249;49.376;11.080;2024-01-15T13:06:35;1.00;99.90
14331;DHT22;7249;49.376;11.080;2024-01-15T13:09:03;0.90;99.90
14331;DHT22;7249;49.376;11.080;2024-01-15T13:11:31;0.90;99.90
14331;DHT22;7249;49.376;11.080;2024-01-15T13:13:57;1.00;99.90
14331;DHT22;7249;49.376;11.080;2024-01-15T13:16:23;0.90;99.90
14331;DHT22;7249;49.376;11.080;2024-01-15T13:18:48;0.90;99.90
14331;DHT22;7249;49.376;11.080;2024-01-15T13:21:15;0.90;99.90
14331;DHT22;7249;49.376;11.080;2024-01-15T13:23:41;0.90;99.90
14331;DHT22;7249;49.376;11.080;2024-01-15T13:26:06;0.90;99.90
14331;DHT22;7249;49.376;11.080;2024-01-15T13:28:33;0.90;99.90
14331;DHT22;7249;49.376;11.080;2024-01-15T13:30:59;0.90;99.90
14331;DHT22;7249;49.376;11.080;2024-01-15T13:33:25;0.90;99.90
14331;DHT22;7249;49.376;11.080;2024-01-15T13:35:51;0.90;99.90
14331;DHT22;7249;49.376;11.080;2024-01-15T13:38:16;0.90;99.90
14331;DHT22;7249;49.376;11.080;2024-01-15T13:40:42;0.90;99.90
14331;DHT22;7249;49.376;11.080;2024-01-15T13:43:11;0.90;99.90
14331;DHT22;7249;49.376;11.080;2024-01-15T13:45:37;0.90;99.90
14331;DHT22;7249;49.376;11.080;2024-01-15T13:48:03;0.90;99.90
14331;DHT22;7249;49.376;11.080;2024-01-15T13:50:36;0.90;99.90
14331;DHT22;7249;49.376;11.080;2024-01-15T13:53:03;0.90;99.90
14331;DHT22;7249;49.376;11.080;2024-01-15T13:55:29;0.80;99.90
14331;DHT22;7249;49.376;11.080;2024-01-15T13:57:55;0.90;99.90
14331;DHT22;7249;49.376;11.080;2024-01-15T14:00:21;0.80;99.90
14331;DHT22;7249;49.376;11.080;2024-01-15T14:02:47;0.80;99.90
14331;DHT22;7249;49.376;11.080;2024-01-15T14:05:13;0.80;99.90
14331;DHT22;7249;49.376;11.080;2024-01-15T14:07:39;0.80;99.90
14331;DHT22;7249;49.376;11.080;2024-01-15T14:10:05;0.80;99.90
14331;DHT22;7249;49.376;11.080;2024-01-15T14:12:33;0.80;99.90
14331;DHT22;7249;49.376;11.080;2024-01-15T14:15:00;0.70;99.90
14331;DHT22;7249;49.376;11.080;2024-01-15T14:17:26;0.80;99.90
14331;DHT22;7249;49.376;11.080;2024-01-15T14:19:51;0.80;99.90
14331;DHT22;7249;49.376;11.080;2024-01-15T14:22:17;0.80;99.90
14331;DHT22;7249;49.376;11.080;2024-01-15T14:24:43;0.70;99.90
14331;DHT22;7249;49.376;11.080;2024-01-15T14:27:08;0.80;99.90
14331;DHT22;7249;49.376;11.080;2024-01-15T14:29:35;0.70;99.90
14331;DHT22;7249;49.376;11.080;2024-01-15T14:32:01;0.70;99.90
14331;DHT22;7249;49.376;11.080;2024-01-15T14:34:27;0.70;99.90
14331;DHT22;7249;49.376;11.080;2024-01-15T14:36:52;0.60;99.90
14331;DHT22;7249;49.376;11.080;2024-01-15T14:39:22;0.70;99.90
14331;DHT22;7249;49.376;11.080;2024-01-15T14:41:48;0.70;99.90
14331;DHT22;7249;49.376;11.080;2024-01-15T14:44:14;0.70;99.90
14331;DHT22;7249;49.376;11.080;2024-01-15T14:46:40;0.80;99.90
14331;DHT22;7249;49.376;11.080;2024-01-15T14:49:05;0.70;99.90
14331;DHT22;7249;49.376;11.080;2024-01-15T14:51:31;0.70;99.90
14331;DHT22;7249;49.376;11.080;2024-01-15T14:53:57;0.70;99.90
14331;DHT22;7249;49.376;11.080;2024-01-15T14:56:22;0.70;99.90
14331;DHT22;7249;49.376;11.080;2024-01-15T14:58:48;0.70;99.90
14331;DHT22;7249;49.376;11.080;2024-01-15T15:01:14;0.60;99.90
14331;DHT22;7249;49.376;11.080;2024-01-15T15:03:40;0.60;99.90
14331;DHT22;7249;49.376;11.080;2024-01-15T15:06:05;0.60;99.90
14331;DHT22;7249;49.376;11.080;2024-01-15T15:08:33;0.60;99.90
14331;DHT22;7249;49.376;11.080;2024-01-15T15:10:59;0.60;99.90
14331;DHT22;7249;49.376;11.080;2024-01-15T15:13:26;0.60;99.90
14331;DHT22;7249;49.376;11.080;2024-01-15T15:15:52;0.60;99.90
14331;DHT22;7249;49.376;11.080;2024-01-15T15:18:20;0.60;99.90
14331;DHT22;7249;49.376;11.080;2024-01-15T15:20:47;0.60;99.90
14331;DHT22;7249;49.376;11.080;2024-01-15T15:23:15;0.60;99.90
14331;DHT22;7249;49.376;11.080;2024-01-15T15:25:41;0.60;99.90
14331;DHT22;7249;49.376;11.080;2024-01-15T15:28:08;0.50;99.90
14331;DHT22;7249;49.376;11.080;2024-01-15T15:30:36;0.50;99.90
14331;DHT22;7249;49.376;11.080;2024-01-15T15:33:02;0.50;99.90
14331;DHT22;7249;49.376;11.080;2024-01-15T15:35:28;0.50;99.90
14331;DHT22;7249;49.376;11.080;2024-01-15T15:37:54;0.50;99.90
14331;DHT22;7249;49.376;11.080;2024-01-15T15:40:20;0.50;99.90
14331;DHT22;7249;49.376;11.080;2024-01-15T15:42:46;0.60;99.90
14331;DHT22;7249;49.376;11.080;2024-01-15T15:45:12;0.60;99.90
14331;DHT22;7249;49.376;11.080;2024-01-15T15:47:38;0.50;99.90